sensor_id;sensor_type;location;lat;lon;timestamp;pressure;altitude;pressure_sealevel;temperature;humidity
18819;BME280;9537;45.594;9.294;2022-09-30T00:00:46;98308.69;;;15.28;90.57
18819;BME280;9537;45.594;9.294;2022-09-30T00:01:49;98315.06;;;15.27;90.82
18819;BME280;9537;45.594;9.294;2022-09-30T00:02:50;98318.50;;;15.27;91.05
18819;BME280;9537;45.594;9.294;2022-09-30T00:03:53;98324.88;;;15.26;91.03
18819;BME280;9537;45.594;9.294;2022-09-30T00:04:56;98329.72;;;15.29;91.10
18819;BME280;9537;45.594;9.294;2022-09-30T00:05:59;98326.84;;;15.31;91.03
18819;BME280;9537;45.594;9.294;2022-09-30T00:07:00;98327.41;;;15.33;90.79
18819;BME280;9537;45.594;9.294;2022-09-30T00:08:02;98322.88;;;15.33;90.73
18819;BME280;9537;45.594;9.294;2022-09-30T00:09:04;98321.59;;;15.36;90.97
18819;BME280;9537;45.594;9.294;2022-09-30T00:10:06;98317.13;;;15.37;90.90
18819;BME280;9537;45.594;9.294;2022-09-30T00:11:10;98320.34;;;15.39;90.87
18819;BME280;9537;45.594;9.294;2022-09-30T00:12:13;98320.09;;;15.40;90.94
18819;BME280;9537;45.594;9.294;2022-09-30T00:13:14;98325.66;;;15.39;90.99
18819;BME280;9537;45.594;9.294;2022-09-30T00:14:18;98332.84;;;15.38;91.27
18819;BME280;9537;45.594;9.294;2022-09-30T00:15:20;98335.50;;;15.38;91.45
18819;BME280;9537;45.594;9.294;2022-09-30T00:16:23;98331.78;;;15.39;91.72
18819;BME280;9537;45.594;9.294;2022-09-30T00:17:24;98339.22;;;15.37;91.82
18819;BME280;9537;45.594;9.294;2022-09-30T00:18:28;98336.06;;;15.40;91.84
18819;BME280;9537;45.594;9.294;2022-09-30T00:19:29;98334.44;;;15.39;91.78
18819;BME280;9537;45.594;9.294;2022-09-30T00:20:33;98333.41;;;15.40;91.77
18819;BME280;9537;45.594;9.294;2022-09-30T00:21:34;98333.63;;;15.39;91.61
18819;BME280;9537;45.594;9.294;2022-09-30T00:22:36;98333.63;;;15.39;91.28
18819;BME280;9537;45.594;9.294;2022-09-30T00:23:38;98332.97;;;15.31;90.96
18819;BME280;9537;45.594;9.294;2022-09-30T00:24:41;98335.63;;;15.31;90.83
18819;BME280;9537;45.594;9.294;2022-09-30T00:25:42;98335.38;;;15.33;90.81
18819;BME280;9537;45.594;9.294;2022-09-30T00:26:44;98338.28;;;15.31;90.64
18819;BME280;9537;45.594;9.294;2022-09-30T00:27:46;98329.50;;;15.31;90.74
18819;BME280;9537;45.594;9.294;2022-09-30T00:28:49;98339.91;;;15.32;90.56
18819;BME280;9537;45.594;9.294;2022-09-30T00:29:52;98348.13;;;15.31;90.80
18819;BME280;9537;45.594;9.294;2022-09-30T00:30:55;98338.78;;;15.28;90.66
18819;BME280;9537;45.594;9.294;2022-09-30T00:31:59;98347.56;;;15.29;90.80
18819;BME280;9537;45.594;9.294;2022-09-30T00:33:00;98353.56;;;15.24;91.28
18819;BME280;9537;45.594;9.294;2022-09-30T00:34:03;98351.72;;;15.25;91.22
18819;BME280;9537;45.594;9.294;2022-09-30T00:35:06;98359.13;;;15.23;90.93
18819;BME280;9537;45.594;9.294;2022-09-30T00:36:10;98361.31;;;15.26;91.15
18819;BME280;9537;45.594;9.294;2022-09-30T00:37:11;98363.66;;;15.22;91.26
18819;BME280;9537;45.594;9.294;2022-09-30T00:38:14;98362.00;;;15.21;91.01
18819;BME280;9537;45.594;9.294;2022-09-30T00:39:17;98366.53;;;15.21;91.15
18819;BME280;9537;45.594;9.294;2022-09-30T00:40:20;98369.19;;;15.21;91.43
18819;BME280;9537;45.594;9.294;2022-09-30T00:41:22;98364.09;;;15.19;91.30
18819;BME280;9537;45.594;9.294;2022-09-30T00:42:24;98366.19;;;15.17;91.28
18819;BME280;9537;45.594;9.294;2022-09-30T00:43:40;98368.84;;;15.17;91.54
18819;BME280;9537;45.594;9.294;2022-09-30T00:44:48;98361.09;;;15.16;91.65
18819;BME280;9537;45.594;9.294;2022-09-30T00:45:53;98362.72;;;15.17;91.45
18819;BME280;9537;45.594;9.294;2022-09-30T00:46:58;98369.88;;;15.16;91.63
18819;BME280;9537;45.594;9.294;2022-09-30T00:48:05;98364.56;;;15.16;91.42
18819;BME280;9537;45.594;9.294;2022-09-30T00:49:12;98367.81;;;15.18;91.39
18819;BME280;9537;45.594;9.294;2022-09-30T00:50:28;98368.84;;;15.17;91.64
18819;BME280;9537;45.594;9.294;2022-09-30T00:51:36;98362.72;;;15.17;91.72
18819;BME280;9537;45.594;9.294;2022-09-30T00:52:38;98372.78;;;15.15;91.69
18819;BME280;9537;45.594;9.294;2022-09-30T00:53:45;98371.97;;;15.14;91.93
18819;BME280;9537;45.594;9.294;2022-09-30T00:54:49;98366.66;;;15.14;92.00
18819;BME280;9537;45.594;9.294;2022-09-30T00:55:56;98374.97;;;15.18;91.71
18819;BME280;9537;45.594;9.294;2022-09-30T00:57:02;98373.94;;;15.19;91.37
18819;BME280;9537;45.594;9.294;2022-09-30T00:58:05;98372.06;;;15.19;91.46
18819;BME280;9537;45.594;9.294;2022-09-30T00:59:12;98377.63;;;15.18;91.58
18819;BME280;9537;45.594;9.294;2022-09-30T01:00:20;98374.41;;;15.16;91.99
18819;BME280;9537;45.594;9.294;2022-09-30T01:01:27;98373.94;;;15.19;92.14
18819;BME280;9537;45.594;9.294;2022-09-30T01:02:31;98378.44;;;15.18;91.80
18819;BME280;9537;45.594;9.294;2022-09-30T01:03:36;98375.78;;;15.18;92.23
18819;BME280;9537;45.594;9.294;2022-09-30T01:04:40;98376.59;;;15.19;91.97
18819;BME280;9537;45.594;9.294;2022-09-30T01:05:42;98373.13;;;15.18;92.44
18819;BME280;9537;45.594;9.294;2022-09-30T01:06:46;98374.19;;;15.17;92.29
18819;BME280;9537;45.594;9.294;2022-09-30T01:07:47;98372.06;;;15.19;92.24
18819;BME280;9537;45.594;9.294;2022-09-30T01:08:50;98375.31;;;15.21;92.51
18819;BME280;9537;45.594;9.294;2022-09-30T01:09:53;98370.47;;;15.18;92.36
18819;BME280;9537;45.594;9.294;2022-09-30T01:10:54;98373.69;;;15.20;92.54
18819;BME280;9537;45.594;9.294;2022-09-30T01:11:56;98372.06;;;15.19;92.50
18819;BME280;9537;45.594;9.294;2022-09-30T01:12:58;98379.59;;;15.22;92.63
18819;BME280;9537;45.594;9.294;2022-09-30T01:14:03;98379.81;;;15.21;92.62
18819;BME280;9537;45.594;9.294;2022-09-30T01:15:05;98380.03;;;15.19;92.72
18819;BME280;9537;45.594;9.294;2022-09-30T01:16:21;98380.88;;;15.20;92.82
18819;BME280;9537;45.594;9.294;2022-09-30T01:17:34;98379.25;;;15.19;92.84
18819;BME280;9537;45.594;9.294;2022-09-30T01:18:47;98380.03;;;15.19;92.79
18819;BME280;9537;45.594;9.294;2022-09-30T01:20:07;98384.56;;;15.19;92.78
18819;BME280;9537;45.594;9.294;2022-09-30T01:21:38;98378.91;;;15.15;92.75
18819;BME280;9537;45.594;9.294;2022-09-30T01:22:53;98380.53;;;15.16;93.35
18819;BME280;9537;45.594;9.294;2022-09-30T01:24:15;98383.19;;;15.16;93.31
18819;BME280;9537;45.594;9.294;2022-09-30T01:27:05;98390.59;;;15.14;93.80
18819;BME280;9537;45.594;9.294;2022-09-30T01:28:32;98380.53;;;15.16;93.91
18819;BME280;9537;45.594;9.294;2022-09-30T01:30:01;98390.94;;;15.18;93.77
18819;BME280;9537;45.594;9.294;2022-09-30T01:31:26;98381.34;;;15.17;93.61
18819;BME280;9537;45.594;9.294;2022-09-30T01:32:47;98382.16;;;15.17;93.28
18819;BME280;9537;45.594;9.294;2022-09-30T01:33:56;98392.22;;;15.15;93.13
18819;BME280;9537;45.594;9.294;2022-09-30T01:35:08;98389.09;;;15.18;92.82
18819;BME280;9537;45.594;9.294;2022-09-30T01:36:26;98394.41;;;15.18;92.94
18819;BME280;9537;45.594;9.294;2022-09-30T01:37:38;98388.50;;;15.16;93.04
18819;BME280;9537;45.594;9.294;2022-09-30T01:38:47;98393.81;;;15.16;93.07
18819;BME280;9537;45.594;9.294;2022-09-30T01:40:02;98401.78;;;15.16;93.00
18819;BME280;9537;45.594;9.294;2022-09-30T01:41:07;98391.41;;;15.15;93.31
18819;BME280;9537;45.594;9.294;2022-09-30T01:42:17;98406.78;;;15.13;93.52
18819;BME280;9537;45.594;9.294;2022-09-30T01:43:25;98403.53;;;15.10;93.35
18819;BME280;9537;45.594;9.294;2022-09-30T01:44:33;98411.28;;;15.12;93.42
18819;BME280;9537;45.594;9.294;2022-09-30T01:45:41;98410.25;;;15.13;93.35
18819;BME280;9537;45.594;9.294;2022-09-30T01:46:53;98412.34;;;15.11;93.56
18819;BME280;9537;45.594;9.294;2022-09-30T01:47:57;98404.59;;;15.09;93.83
18819;BME280;9537;45.594;9.294;2022-09-30T01:49:09;98404.84;;;15.08;93.88
18819;BME280;9537;45.594;9.294;2022-09-30T01:50:17;98407.50;;;15.08;94.07
18819;BME280;9537;45.594;9.294;2022-09-30T01:51:26;98402.16;;;15.08;93.90
18819;BME280;9537;45.594;9.294;2022-09-30T01:52:34;98409.91;;;15.09;93.97
18819;BME280;9537;45.594;9.294;2022-09-30T01:53:42;98405.38;;;15.10;93.89
18819;BME280;9537;45.594;9.294;2022-09-30T01:54:50;98406.19;;;15.10;93.85
18819;BME280;9537;45.594;9.294;2022-09-30T01:55:58;98409.56;;;15.06;94.30
18819;BME280;9537;45.594;9.294;2022-09-30T01:57:05;98415.91;;;15.05;94.26
18819;BME280;9537;45.594;9.294;2022-09-30T01:58:13;98416.75;;;15.05;94.25
18819;BME280;9537;45.594;9.294;2022-09-30T01:59:20;98414.88;;;15.06;94.51
18819;BME280;9537;45.594;9.294;2022-09-30T02:00:23;98405.06;;;15.06;94.69
18819;BME280;9537;45.594;9.294;2022-09-30T02:01:28;98412.81;;;15.08;94.45
18819;BME280;9537;45.594;9.294;2022-09-30T02:02:35;98410.94;;;15.08;94.41
18819;BME280;9537;45.594;9.294;2022-09-30T02:03:44;98415.22;;;15.09;94.21
18819;BME280;9537;45.594;9.294;2022-09-30T02:04:51;98415.22;;;15.09;93.99
18819;BME280;9537;45.594;9.294;2022-09-30T02:05:59;98406.44;;;15.09;94.17
18819;BME280;9537;45.594;9.294;2022-09-30T02:07:05;98413.16;;;15.12;94.44
18819;BME280;9537;45.594;9.294;2022-09-30T02:08:13;98405.38;;;15.10;94.43
18819;BME280;9537;45.594;9.294;2022-09-30T02:09:20;98411.50;;;15.10;94.53
18819;BME280;9537;45.594;9.294;2022-09-30T02:10:28;98410.72;;;15.10;94.46
18819;BME280;9537;45.594;9.294;2022-09-30T02:11:32;98410.72;;;15.10;94.25
18819;BME280;9537;45.594;9.294;2022-09-30T02:12:39;98408.63;;;15.12;94.36
18819;BME280;9537;45.594;9.294;2022-09-30T02:13:44;98408.03;;;15.10;94.50
18819;BME280;9537;45.594;9.294;2022-09-30T02:14:53;98408.03;;;15.10;94.74
18819;BME280;9537;45.594;9.294;2022-09-30T02:15:58;98411.50;;;15.10;94.77
18819;BME280;9537;45.594;9.294;2022-09-30T02:17:05;98408.84;;;15.10;94.92
18819;BME280;9537;45.594;9.294;2022-09-30T02:18:14;98419.28;;;15.12;95.00
18819;BME280;9537;45.594;9.294;2022-09-30T02:19:21;98421.13;;;15.12;94.92
18819;BME280;9537;45.594;9.294;2022-09-30T02:20:30;98425.63;;;15.11;94.76
18819;BME280;9537;45.594;9.294;2022-09-30T02:21:37;98424.81;;;15.10;94.43
18819;BME280;9537;45.594;9.294;2022-09-30T02:22:43;98426.91;;;15.08;94.56
18819;BME280;9537;45.594;9.294;2022-09-30T02:23:48;98431.97;;;15.10;94.38
18819;BME280;9537;45.594;9.294;2022-09-30T02:24:57;98427.94;;;15.07;94.59
18819;BME280;9537;45.594;9.294;2022-09-30T02:26:02;98435.09;;;15.07;94.36
18819;BME280;9537;45.594;9.294;2022-09-30T02:27:11;98427.13;;;15.07;94.58
18819;BME280;9537;45.594;9.294;2022-09-30T02:28:17;98431.66;;;15.06;94.64
18819;BME280;9537;45.594;9.294;2022-09-30T02:29:23;98427.38;;;15.05;94.49
18819;BME280;9537;45.594;9.294;2022-09-30T02:30:27;98431.66;;;15.06;94.70
18819;BME280;9537;45.594;9.294;2022-09-30T02:31:32;98436.97;;;15.06;94.85
18819;BME280;9537;45.594;9.294;2022-09-30T02:32:39;98436.16;;;15.06;94.87
18819;BME280;9537;45.594;9.294;2022-09-30T02:33:47;98426.31;;;15.06;94.84
18819;BME280;9537;45.594;9.294;2022-09-30T02:34:53;98431.84;;;15.05;94.80
18819;BME280;9537;45.594;9.294;2022-09-30T02:36:01;98433.38;;;15.01;94.79
18819;BME280;9537;45.594;9.294;2022-09-30T02:37:09;98425.75;;;15.04;94.74
18819;BME280;9537;45.594;9.294;2022-09-30T02:38:16;98433.72;;;15.04;94.64
18819;BME280;9537;45.594;9.294;2022-09-30T02:39:27;98437.19;;;15.05;94.80
18819;BME280;9537;45.594;9.294;2022-09-30T02:40:37;98428.41;;;15.04;94.86
18819;BME280;9537;45.594;9.294;2022-09-30T02:41:45;98431.66;;;15.06;94.92
18819;BME280;9537;45.594;9.294;2022-09-30T02:42:49;98430.03;;;15.05;94.69
18819;BME280;9537;45.594;9.294;2022-09-30T02:43:51;98423.88;;;15.05;94.77
18819;BME280;9537;45.594;9.294;2022-09-30T02:44:58;98429.19;;;15.05;94.74
18819;BME280;9537;45.594;9.294;2022-09-30T02:46:06;98427.38;;;15.05;94.79
18819;BME280;9537;45.594;9.294;2022-09-30T02:47:11;98430.84;;;15.06;94.87
18819;BME280;9537;45.594;9.294;2022-09-30T02:48:24;98433.50;;;15.06;94.90
18819;BME280;9537;45.594;9.294;2022-09-30T02:49:35;98428.19;;;15.06;94.80
18819;BME280;9537;45.594;9.294;2022-09-30T02:50:45;98430.59;;;15.07;94.46
18819;BME280;9537;45.594;9.294;2022-09-30T02:51:59;98430.59;;;15.07;94.35
18819;BME280;9537;45.594;9.294;2022-09-30T02:53:12;98431.44;;;15.08;94.47
18819;BME280;9537;45.594;9.294;2022-09-30T02:54:22;98436.75;;;15.08;94.73
18819;BME280;9537;45.594;9.294;2022-09-30T02:55:33;98438.81;;;15.06;94.99
18819;BME280;9537;45.594;9.294;2022-09-30T02:56:42;98434.09;;;15.08;94.78
18819;BME280;9537;45.594;9.294;2022-09-30T02:57:56;98435.91;;;15.07;94.58
18819;BME280;9537;45.594;9.294;2022-09-30T02:59:01;98433.03;;;15.09;94.63
18819;BME280;9537;45.594;9.294;2022-09-30T03:00:03;98436.50;;;15.09;94.62
18819;BME280;9537;45.594;9.294;2022-09-30T03:01:06;98432.78;;;15.10;94.62
18819;BME280;9537;45.594;9.294;2022-09-30T03:02:09;98431.19;;;15.09;94.76
18819;BME280;9537;45.594;9.294;2022-09-30T03:03:17;98431.19;;;15.09;94.95
18819;BME280;9537;45.594;9.294;2022-09-30T03:04:22;98426.91;;;15.08;95.12
18819;BME280;9537;45.594;9.294;2022-09-30T03:05:27;98423.44;;;15.08;95.11
18819;BME280;9537;45.594;9.294;2022-09-30T03:06:29;98426.66;;;15.10;95.29
18819;BME280;9537;45.594;9.294;2022-09-30T03:07:31;98419.50;;;15.10;94.89
18819;BME280;9537;45.594;9.294;2022-09-30T03:08:33;98420.88;;;15.13;94.54
18819;BME280;9537;45.594;9.294;2022-09-30T03:09:35;98421.47;;;15.15;94.34
18819;BME280;9537;45.594;9.294;2022-09-30T03:10:37;98417.19;;;15.14;94.03
18819;BME280;9537;45.594;9.294;2022-09-30T03:11:39;98418.00;;;15.15;93.87
18819;BME280;9537;45.594;9.294;2022-09-30T03:12:54;98417.19;;;15.14;93.11
18819;BME280;9537;45.594;9.294;2022-09-30T03:15:49;98405.72;;;15.14;91.85
18819;BME280;9537;45.594;9.294;2022-09-30T03:18:44;98413.16;;;15.12;91.89
18819;BME280;9537;45.594;9.294;2022-09-30T03:19:59;98409.69;;;15.11;91.81
18819;BME280;9537;45.594;9.294;2022-09-30T03:21:16;98413.38;;;15.10;91.66
18819;BME280;9537;45.594;9.294;2022-09-30T03:22:42;98415.47;;;15.08;91.81
18819;BME280;9537;45.594;9.294;2022-09-30T03:25:25;98411.03;;;15.14;91.10
18819;BME280;9537;45.594;9.294;2022-09-30T03:26:36;98416.34;;;15.14;90.73
18819;BME280;9537;45.594;9.294;2022-09-30T03:27:51;98418.47;;;15.12;90.78
18819;BME280;9537;45.594;9.294;2022-09-30T03:29:09;98418.47;;;15.12;90.84
18819;BME280;9537;45.594;9.294;2022-09-30T03:30:15;98419.72;;;15.09;91.20
18819;BME280;9537;45.594;9.294;2022-09-30T03:31:25;98428.19;;;15.06;91.64
18819;BME280;9537;45.594;9.294;2022-09-30T03:32:47;98425.53;;;15.06;91.55
18819;BME280;9537;45.594;9.294;2022-09-30T03:33:57;98427.59;;;15.04;91.62
18819;BME280;9537;45.594;9.294;2022-09-30T03:35:07;98430.50;;;15.02;91.27
18819;BME280;9537;45.594;9.294;2022-09-30T03:36:24;98434.19;;;15.01;91.45
18819;BME280;9537;45.594;9.294;2022-09-30T03:37:31;98431.19;;;14.98;91.45
18819;BME280;9537;45.594;9.294;2022-09-30T03:38:39;98441.22;;;14.96;91.07
18819;BME280;9537;45.594;9.294;2022-09-30T03:39:53;98451.66;;;14.97;91.29
18819;BME280;9537;45.594;9.294;2022-09-30T03:41:01;98448.75;;;14.99;91.32
18819;BME280;9537;45.594;9.294;2022-09-30T03:42:09;98456.16;;;14.97;91.00
18819;BME280;9537;45.594;9.294;2022-09-30T03:43:19;98462.03;;;14.99;91.17
18819;BME280;9537;45.594;9.294;2022-09-30T03:44:31;98466.53;;;14.98;91.18
18819;BME280;9537;45.594;9.294;2022-09-30T03:45:38;98463.31;;;14.96;91.32
18819;BME280;9537;45.594;9.294;2022-09-30T03:46:44;98467.00;;;14.95;91.10
18819;BME280;9537;45.594;9.294;2022-09-30T03:47:50;98469.09;;;14.93;91.56
18819;BME280;9537;45.594;9.294;2022-09-30T03:48:56;98468.28;;;14.93;91.76
18819;BME280;9537;45.594;9.294;2022-09-30T03:50:02;98465.63;;;14.93;91.59
18819;BME280;9537;45.594;9.294;2022-09-30T03:51:05;98473.84;;;14.91;91.70
18819;BME280;9537;45.594;9.294;2022-09-30T03:52:10;98475.66;;;14.91;91.91
18819;BME280;9537;45.594;9.294;2022-09-30T03:53:13;98478.91;;;14.93;92.08
18819;BME280;9537;45.594;9.294;2022-09-30T03:54:14;98474.41;;;14.93;91.40
18819;BME280;9537;45.594;9.294;2022-09-30T03:55:17;98474.66;;;14.92;91.46
18819;BME280;9537;45.594;9.294;2022-09-30T03:56:24;98473.25;;;14.89;91.25
18819;BME280;9537;45.594;9.294;2022-09-30T03:57:27;98477.31;;;14.92;91.60
18819;BME280;9537;45.594;9.294;2022-09-30T03:58:29;98481.81;;;14.91;91.51
18819;BME280;9537;45.594;9.294;2022-09-30T03:59:31;98474.41;;;14.93;91.60
18819;BME280;9537;45.594;9.294;2022-09-30T04:00:33;98478.91;;;14.93;91.28
18819;BME280;9537;45.594;9.294;2022-09-30T04:01:34;98480.75;;;14.92;91.59
18819;BME280;9537;45.594;9.294;2022-09-30T04:02:36;98487.13;;;14.91;91.99
18819;BME280;9537;45.594;9.294;2022-09-30T04:03:37;98487.94;;;14.92;91.91
18819;BME280;9537;45.594;9.294;2022-09-30T04:04:39;98487.59;;;14.88;92.57
18819;BME280;9537;45.594;9.294;2022-09-30T04:05:41;98490.47;;;14.86;92.87
18819;BME280;9537;45.594;9.294;2022-09-30T04:06:43;98493.94;;;14.87;92.71
18819;BME280;9537;45.594;9.294;2022-09-30T04:07:46;98479.63;;;14.88;92.84
18819;BME280;9537;45.594;9.294;2022-09-30T04:08:49;98479.84;;;14.86;93.23
18819;BME280;9537;45.594;9.294;2022-09-30T04:09:50;98487.81;;;14.86;93.23
18819;BME280;9537;45.594;9.294;2022-09-30T04:10:52;98484.34;;;14.86;93.04
18819;BME280;9537;45.594;9.294;2022-09-30T04:11:53;98490.69;;;14.85;93.09
18819;BME280;9537;45.594;9.294;2022-09-30T04:12:55;98489.66;;;14.86;93.17
18819;BME280;9537;45.594;9.294;2022-09-30T04:13:57;98491.97;;;14.82;92.93
18819;BME280;9537;45.594;9.294;2022-09-30T04:15:01;98496.25;;;14.83;93.29
18819;BME280;9537;45.594;9.294;2022-09-30T04:16:02;98499.13;;;14.82;93.15
18819;BME280;9537;45.594;9.294;2022-09-30T04:17:05;98503.63;;;14.81;93.40
18819;BME280;9537;45.594;9.294;2022-09-30T04:18:06;98510.59;;;14.82;93.38
18819;BME280;9537;45.594;9.294;2022-09-30T04:19:08;98512.41;;;14.82;93.34
18819;BME280;9537;45.594;9.294;2022-09-30T04:20:09;98511.84;;;14.80;93.54
18819;BME280;9537;45.594;9.294;2022-09-30T04:21:13;98511.84;;;14.80;93.63
18819;BME280;9537;45.594;9.294;2022-09-30T04:22:15;98519.34;;;14.83;93.64
18819;BME280;9537;45.594;9.294;2022-09-30T04:23:18;98515.91;;;14.82;93.63
18819;BME280;9537;45.594;9.294;2022-09-30T04:24:19;98518.78;;;14.81;93.53
18819;BME280;9537;45.594;9.294;2022-09-30T04:25:21;98522.47;;;14.80;93.92
18819;BME280;9537;45.594;9.294;2022-09-30T04:26:22;98525.69;;;14.82;93.88
18819;BME280;9537;45.594;9.294;2022-09-30T04:27:24;98522.03;;;14.83;93.85
18819;BME280;9537;45.594;9.294;2022-09-30T04:28:27;98523.88;;;14.82;93.87
18819;BME280;9537;45.594;9.294;2022-09-30T04:29:29;98523.41;;;14.85;93.55
18819;BME280;9537;45.594;9.294;2022-09-30T04:30:31;98519.91;;;14.85;92.64
18819;BME280;9537;45.594;9.294;2022-09-30T04:31:32;98520.97;;;14.84;92.36
18819;BME280;9537;45.594;9.294;2022-09-30T04:32:34;98531.25;;;14.80;92.62
18819;BME280;9537;45.594;9.294;2022-09-30T04:33:35;98529.66;;;14.79;92.69
18819;BME280;9537;45.594;9.294;2022-09-30T04:34:37;98532.50;;;14.78;93.39
18819;BME280;9537;45.594;9.294;2022-09-30T04:35:38;98531.25;;;14.80;92.81
18819;BME280;9537;45.594;9.294;2022-09-30T04:36:40;98533.91;;;14.80;93.03
18819;BME280;9537;45.594;9.294;2022-09-30T04:37:42;98536.56;;;14.80;93.39
18819;BME280;9537;45.594;9.294;2022-09-30T04:38:46;98530.66;;;14.78;93.63
18819;BME280;9537;45.594;9.294;2022-09-30T04:39:46;98527.00;;;14.79;93.58
18819;BME280;9537;45.594;9.294;2022-09-30T04:40:49;98530.44;;;14.80;93.57
18819;BME280;9537;45.594;9.294;2022-09-30T04:41:50;98531.25;;;14.80;93.59
18819;BME280;9537;45.594;9.294;2022-09-30T04:42:55;98528.13;;;14.83;93.39
18819;BME280;9537;45.594;9.294;2022-09-30T04:43:57;98523.03;;;14.82;93.26
18819;BME280;9537;45.594;9.294;2022-09-30T04:44:59;98525.25;;;14.85;93.08
18819;BME280;9537;45.594;9.294;2022-09-30T04:46:01;98519.72;;;14.86;93.11
18819;BME280;9537;45.594;9.294;2022-09-30T04:47:03;98519.91;;;14.85;93.14
18819;BME280;9537;45.594;9.294;2022-09-30T04:48:04;98526.28;;;14.84;93.47
18819;BME280;9537;45.594;9.294;2022-09-30T04:49:06;98521.56;;;14.86;93.06
18819;BME280;9537;45.594;9.294;2022-09-30T04:50:08;98522.38;;;14.86;92.61
18819;BME280;9537;45.594;9.294;2022-09-30T04:51:10;98524.91;;;14.93;92.39
18819;BME280;9537;45.594;9.294;2022-09-30T04:52:11;98530.22;;;14.93;92.00
18819;BME280;9537;45.594;9.294;2022-09-30T04:53:14;98527.56;;;14.93;91.93
18819;BME280;9537;45.594;9.294;2022-09-30T04:54:17;98526.19;;;14.91;92.33
18819;BME280;9537;45.594;9.294;2022-09-30T04:55:18;98526.75;;;14.93;92.05
18819;BME280;9537;45.594;9.294;2022-09-30T04:56:19;98530.47;;;14.92;92.23
18819;BME280;9537;45.594;9.294;2022-09-30T04:57:22;98530.13;;;14.88;92.53
18819;BME280;9537;45.594;9.294;2022-09-30T04:58:24;98536.00;;;14.90;92.12
18819;BME280;9537;45.594;9.294;2022-09-30T04:59:26;98536.25;;;14.89;92.39
18819;BME280;9537;45.594;9.294;2022-09-30T05:00:28;98533.94;;;14.92;92.04
18819;BME280;9537;45.594;9.294;2022-09-30T05:01:29;98535.91;;;14.97;91.37
18819;BME280;9537;45.594;9.294;2022-09-30T05:02:32;98535.78;;;14.92;91.47
18819;BME280;9537;45.594;9.294;2022-09-30T05:03:33;98540.31;;;14.91;91.78
18819;BME280;9537;45.594;9.294;2022-09-30T05:04:35;98539.13;;;14.87;92.08
18819;BME280;9537;45.594;9.294;2022-09-30T05:05:36;98543.84;;;14.85;92.51
18819;BME280;9537;45.594;9.294;2022-09-30T05:06:38;98543.84;;;14.85;92.57
18819;BME280;9537;45.594;9.294;2022-09-30T05:07:40;98540.38;;;14.84;92.59
18819;BME280;9537;45.594;9.294;2022-09-30T05:08:42;98542.03;;;14.85;92.50
18819;BME280;9537;45.594;9.294;2022-09-30T05:09:45;98542.03;;;14.85;92.83
18819;BME280;9537;45.594;9.294;2022-09-30T05:10:52;98544.09;;;14.83;92.88
18819;BME280;9537;45.594;9.294;2022-09-30T05:11:54;98544.91;;;14.84;93.08
18819;BME280;9537;45.594;9.294;2022-09-30T05:12:57;98544.69;;;14.85;92.98
18819;BME280;9537;45.594;9.294;2022-09-30T05:13:58;98538.31;;;14.86;92.74
18819;BME280;9537;45.594;9.294;2022-09-30T05:15:00;98540.97;;;14.86;92.95
18819;BME280;9537;45.594;9.294;2022-09-30T05:16:02;98542.81;;;14.86;92.68
18819;BME280;9537;45.594;9.294;2022-09-30T05:17:04;98543.63;;;14.86;92.81
18819;BME280;9537;45.594;9.294;2022-09-30T05:18:06;98547.56;;;14.84;92.67
18819;BME280;9537;45.594;9.294;2022-09-30T05:19:07;98543.28;;;14.83;93.02
18819;BME280;9537;45.594;9.294;2022-09-30T05:20:09;98550.81;;;14.86;93.03
18819;BME280;9537;45.594;9.294;2022-09-30T05:21:11;98553.66;;;14.84;93.05
18819;BME280;9537;45.594;9.294;2022-09-30T05:22:14;98550.00;;;14.85;93.42
18819;BME280;9537;45.594;9.294;2022-09-30T05:23:15;98558.78;;;14.86;93.35
18819;BME280;9537;45.594;9.294;2022-09-30T05:24:17;98566.97;;;14.84;93.47
18819;BME280;9537;45.594;9.294;2022-09-30T05:25:21;98559.00;;;14.84;93.82
18819;BME280;9537;45.594;9.294;2022-09-30T05:26:23;98573.69;;;14.87;93.56
18819;BME280;9537;45.594;9.294;2022-09-30T05:27:29;98573.91;;;14.85;93.50
18819;BME280;9537;45.594;9.294;2022-09-30T05:28:31;98570.66;;;14.83;93.72
18819;BME280;9537;45.594;9.294;2022-09-30T05:29:33;98576.78;;;14.84;94.04
18819;BME280;9537;45.594;9.294;2022-09-30T05:30:35;98579.25;;;14.85;94.07
18819;BME280;9537;45.594;9.294;2022-09-30T05:31:37;98579.25;;;14.85;93.94
18819;BME280;9537;45.594;9.294;2022-09-30T05:32:38;98588.03;;;14.86;94.02
18819;BME280;9537;45.594;9.294;2022-09-30T05:33:40;98584.31;;;14.87;93.66
18819;BME280;9537;45.594;9.294;2022-09-30T05:34:42;98583.50;;;14.86;93.67
18819;BME280;9537;45.594;9.294;2022-09-30T05:35:44;98581.91;;;14.85;93.43
18819;BME280;9537;45.594;9.294;2022-09-30T05:36:45;98589.88;;;14.85;93.88
18819;BME280;9537;45.594;9.294;2022-09-30T05:37:47;98596.00;;;14.86;93.49
18819;BME280;9537;45.594;9.294;2022-09-30T05:38:49;98594.13;;;14.86;93.01
18819;BME280;9537;45.594;9.294;2022-09-30T05:39:52;98599.47;;;14.86;92.48
18819;BME280;9537;45.594;9.294;2022-09-30T05:40:55;98598.88;;;14.84;92.53
18819;BME280;9537;45.594;9.294;2022-09-30T05:41:57;98601.75;;;14.83;92.70
18819;BME280;9537;45.594;9.294;2022-09-30T05:42:59;98601.53;;;14.84;92.58
18819;BME280;9537;45.594;9.294;2022-09-30T05:44:01;98607.44;;;14.86;92.87
18819;BME280;9537;45.594;9.294;2022-09-30T05:45:02;98615.41;;;14.86;92.58
18819;BME280;9537;45.594;9.294;2022-09-30T05:46:05;98612.75;;;14.86;92.94
18819;BME280;9537;45.594;9.294;2022-09-30T05:47:06;98617.25;;;14.86;93.01
18819;BME280;9537;45.594;9.294;2022-09-30T05:48:11;98620.50;;;14.88;93.16
18819;BME280;9537;45.594;9.294;2022-09-30T05:49:12;98612.53;;;14.88;93.35
18819;BME280;9537;45.594;9.294;2022-09-30T05:50:14;98618.41;;;14.90;93.04
18819;BME280;9537;45.594;9.294;2022-09-30T05:51:15;98612.75;;;14.86;91.77
18819;BME280;9537;45.594;9.294;2022-09-30T05:52:17;98611.69;;;14.87;92.13
18819;BME280;9537;45.594;9.294;2022-09-30T05:53:19;98617.84;;;14.88;91.92
18819;BME280;9537;45.594;9.294;2022-09-30T05:54:21;98615.19;;;14.88;92.12
18819;BME280;9537;45.594;9.294;2022-09-30T05:55:23;98618.81;;;14.94;92.09
18819;BME280;9537;45.594;9.294;2022-09-30T05:56:26;98631.84;;;14.95;92.28
18819;BME280;9537;45.594;9.294;2022-09-30T05:57:28;98632.09;;;14.94;92.13